sensor_id;sensor_type;location;lat;lon;timestamp;pressure;altitude;pressure_sealevel;temperature
27715;BMP280;16051;53.024;8.630;2023-03-15T00:04:08;100745.53;;;2.34
27715;BMP280;16051;53.024;8.630;2023-03-15T00:08:13;100744.97;;;2.43
27715;BMP280;16051;53.024;8.630;2023-03-15T00:12:16;100750.91;;;2.38
27715;BMP280;16051;53.024;8.630;2023-03-15T00:16:18;100746.53;;;2.44
27715;BMP280;16051;53.024;8.630;2023-03-15T00:20:20;100740.31;;;2.43
27715;BMP280;16051;53.024;8.630;2023-03-15T00:24:39;100750.91;;;2.38
27715;BMP280;16051;53.024;8.630;2023-03-15T00:28:42;100753.94;;;2.43
27715;BMP280;16051;53.024;8.630;2023-03-15T00:32:46;100765.38;;;2.35
27715;BMP280;16051;53.024;8.630;2023-03-15T00:36:49;100765.66;;;2.40
27715;BMP280;16051;53.024;8.630;2023-03-15T00:40:54;100768.06;;;2.38
27715;BMP280;16051;53.024;8.630;2023-03-15T00:44:56;100781.13;;;2.47
27715;BMP280;16051;53.024;8.630;2023-03-15T00:48:58;100778.78;;;2.49
27715;BMP280;16051;53.024;8.630;2023-03-15T00:53:01;100768.22;;;2.51
27715;BMP280;16051;53.024;8.630;2023-03-15T00:57:04;100776.28;;;2.58
27715;BMP280;16051;53.024;8.630;2023-03-15T01:01:28;100786.06;;;2.56
27715;BMP280;16051;53.024;8.630;2023-03-15T01:05:30;100799.34;;;2.54
27715;BMP280;16051;53.024;8.630;2023-03-15T01:09:33;100796.38;;;2.44
27715;BMP280;16051;53.024;8.630;2023-03-15T01:13:37;100800.66;;;2.45
27715;BMP280;16051;53.024;8.630;2023-03-15T01:17:39;100802.19;;;2.46
27715;BMP280;16051;53.024;8.630;2023-03-15T01:21:42;100815.16;;;2.39
27715;BMP280;16051;53.024;8.630;2023-03-15T01:26:07;100824.75;;;2.47
27715;BMP280;16051;53.024;8.630;2023-03-15T01:30:11;100827.50;;;2.47
27715;BMP280;16051;53.024;8.630;2023-03-15T01:34:14;100828.22;;;2.51
27715;BMP280;16051;53.024;8.630;2023-03-15T01:38:16;100836.72;;;2.57
27715;BMP280;16051;53.024;8.630;2023-03-15T01:42:18;100844.16;;;2.53
27715;BMP280;16051;53.024;8.630;2023-03-15T01:46:25;100854.91;;;2.63
27715;BMP280;16051;53.024;8.630;2023-03-15T01:50:28;100855.81;;;2.57
27715;BMP280;16051;53.024;8.630;2023-03-15T01:54:37;100876.16;;;2.48
27715;BMP280;16051;53.024;8.630;2023-03-15T01:58:44;100872.63;;;2.52
27715;BMP280;16051;53.024;8.630;2023-03-15T02:02:54;100882.28;;;2.56
27715;BMP280;16051;53.024;8.630;2023-03-15T02:07:00;100877.84;;;2.66
27715;BMP280;16051;53.024;8.630;2023-03-15T02:11:04;100890.41;;;2.60
27715;BMP280;16051;53.024;8.630;2023-03-15T02:15:08;100883.25;;;2.69
27715;BMP280;16051;53.024;8.630;2023-03-15T02:19:30;100883.63;;;2.71
27715;BMP280;16051;53.024;8.630;2023-03-15T02:23:36;100887.97;;;2.65
27715;BMP280;16051;53.024;8.630;2023-03-15T02:27:39;100904.44;;;2.58
27715;BMP280;16051;53.024;8.630;2023-03-15T02:31:42;100906.06;;;2.56
27715;BMP280;16051;53.024;8.630;2023-03-15T02:35:45;100907.13;;;2.62
27715;BMP280;16051;53.024;8.630;2023-03-15T02:39:47;100908.00;;;2.55
27715;BMP280;16051;53.024;8.630;2023-03-15T02:43:56;100894.94;;;2.43
27715;BMP280;16051;53.024;8.630;2023-03-15T02:48:15;100920.03;;;2.58
27715;BMP280;16051;53.024;8.630;2023-03-15T02:52:19;100910.69;;;2.59
27715;BMP280;16051;53.024;8.630;2023-03-15T02:56:21;100912.44;;;2.45
27715;BMP280;16051;53.024;8.630;2023-03-15T03:00:25;100920.25;;;2.43
27715;BMP280;16051;53.024;8.630;2023-03-15T03:05:13;100933.88;;;2.43
27715;BMP280;16051;53.024;8.630;2023-03-15T03:09:15;100937.31;;;2.47
27715;BMP280;16051;53.024;8.630;2023-03-15T03:13:17;100955.38;;;2.38
27715;BMP280;16051;53.024;8.630;2023-03-15T03:17:28;100962.88;;;2.30
27715;BMP280;16051;53.024;8.630;2023-03-15T03:21:30;100971.06;;;2.30
27715;BMP280;16051;53.024;8.630;2023-03-15T03:25:33;100987.53;;;2.50
27715;BMP280;16051;53.024;8.630;2023-03-15T03:29:36;101000.50;;;2.42
27715;BMP280;16051;53.024;8.630;2023-03-15T03:33:41;101004.28;;;2.52
27715;BMP280;16051;53.024;8.630;2023-03-15T03:37:43;101010.50;;;2.53
27715;BMP280;16051;53.024;8.630;2023-03-15T03:41:45;101011.34;;;2.50
27715;BMP280;16051;53.024;8.630;2023-03-15T03:45:47;101028.41;;;2.54
27715;BMP280;16051;53.024;8.630;2023-03-15T03:49:53;101036.22;;;2.52
27715;BMP280;16051;53.024;8.630;2023-03-15T03:53:55;101039.34;;;2.50
27715;BMP280;16051;53.024;8.630;2023-03-15T03:57:57;101053.44;;;2.45
27715;BMP280;16051;53.024;8.630;2023-03-15T04:01:59;101048.91;;;2.35
27715;BMP280;16051;53.024;8.630;2023-03-15T04:06:03;101056.22;;;2.41
27715;BMP280;16051;53.024;8.630;2023-03-15T04:10:11;101063.63;;;2.41
27715;BMP280;16051;53.024;8.630;2023-03-15T04:14:14;101071.91;;;2.30
27715;BMP280;16051;53.024;8.630;2023-03-15T04:18:23;101071.53;;;2.28
27715;BMP280;16051;53.024;8.630;2023-03-15T04:22:27;101085.00;;;2.09
27715;BMP280;16051;53.024;8.630;2023-03-15T04:26:29;101092.81;;;2.03
27715;BMP280;16051;53.024;8.630;2023-03-15T04:30:31;101115.00;;;2.05
27715;BMP280;16051;53.024;8.630;2023-03-15T04:34:34;101118.22;;;1.93
27715;BMP280;16051;53.024;8.630;2023-03-15T04:38:39;101130.66;;;1.94
27715;BMP280;16051;53.024;8.630;2023-03-15T04:42:53;101133.50;;;1.80
27715;BMP280;16051;53.024;8.630;2023-03-15T04:46:57;101135.41;;;1.86
27715;BMP280;16051;53.024;8.630;2023-03-15T04:50:59;101132.06;;;1.65
27715;BMP280;16051;53.024;8.630;2023-03-15T04:55:03;101138.66;;;1.67
27715;BMP280;16051;53.024;8.630;2023-03-15T04:59:06;101149.56;;;1.64
27715;BMP280;16051;53.024;8.630;2023-03-15T05:03:08;101143.38;;;1.56
27715;BMP280;16051;53.024;8.630;2023-03-15T05:07:10;101153.13;;;1.54
27715;BMP280;16051;53.024;8.630;2023-03-15T05:11:41;101153.59;;;1.41
27715;BMP280;16051;53.024;8.630;2023-03-15T05:15:43;101163.25;;;1.53
27715;BMP280;16051;53.024;8.630;2023-03-15T05:19:46;101174.16;;;1.53
27715;BMP280;16051;53.024;8.630;2023-03-15T05:23:48;101171.84;;;1.52
27715;BMP280;16051;53.024;8.630;2023-03-15T05:27:51;101179.59;;;1.53
27715;BMP280;16051;53.024;8.630;2023-03-15T05:31:57;101190.44;;;1.60
27715;BMP280;16051;53.024;8.630;2023-03-15T05:35:59;101191.28;;;1.50
27715;BMP280;16051;53.024;8.630;2023-03-15T05:40:01;101195.22;;;1.42
27715;BMP280;16051;53.024;8.630;2023-03-15T05:44:05;101207.25;;;1.48
27715;BMP280;16051;53.024;8.630;2023-03-15T05:48:07;101218.19;;;1.41
27715;BMP280;16051;53.024;8.630;2023-03-15T05:52:10;101222.84;;;1.40
27715;BMP280;16051;53.024;8.630;2023-03-15T05:56:12;101236.09;;;1.31
27715;BMP280;16051;53.024;8.630;2023-03-15T06:00:17;101248.88;;;1.41
27715;BMP280;16051;53.024;8.630;2023-03-15T06:04:21;101250.88;;;1.37
27715;BMP280;16051;53.024;8.630;2023-03-15T06:08:26;101253.56;;;1.41
27715;BMP280;16051;53.024;8.630;2023-03-15T06:12:28;101263.69;;;1.40
27715;BMP280;16051;53.024;8.630;2023-03-15T06:16:32;101266.00;;;1.42
27715;BMP280;16051;53.024;8.630;2023-03-15T06:20:34;101268.72;;;1.42
27715;BMP280;16051;53.024;8.630;2023-03-15T06:24:50;101275.34;;;1.37
27715;BMP280;16051;53.024;8.630;2023-03-15T06:28:52;101286.59;;;1.46
27715;BMP280;16051;53.024;8.630;2023-03-15T06:32:56;101286.94;;;1.56
27715;BMP280;16051;53.024;8.630;2023-03-15T06:36:58;101295.50;;;1.58
27715;BMP280;16051;53.024;8.630;2023-03-15T06:41:00;101296.59;;;1.67
27715;BMP280;16051;53.024;8.630;2023-03-15T06:45:06;101291.06;;;1.85
27715;BMP280;16051;53.024;8.630;2023-03-15T06:49:11;101301.50;;;1.97
27715;BMP280;16051;53.024;8.630;2023-03-15T06:53:23;101310.06;;;2.03
27715;BMP280;16051;53.024;8.630;2023-03-15T06:57:26;101319.28;;;2.19
27715;BMP280;16051;53.024;8.630;2023-03-15T07:01:28;101334.03;;;2.25
27715;BMP280;16051;53.024;8.630;2023-03-15T07:05:32;101339.13;;;2.23
27715;BMP280;16051;53.024;8.630;2023-03-15T07:09:40;101356.69;;;2.19
27715;BMP280;16051;53.024;8.630;2023-03-15T07:13:43;101373.78;;;2.23
27715;BMP280;16051;53.024;8.630;2023-03-15T07:17:48;101381.94;;;2.26
27715;BMP280;16051;53.024;8.630;2023-03-15T07:21:52;101381.84;;;2.44
27715;BMP280;16051;53.024;8.630;2023-03-15T07:25:54;101394.16;;;2.66
27715;BMP280;16051;53.024;8.630;2023-03-15T07:29:57;101397.84;;;2.90
27715;BMP280;16051;53.024;8.630;2023-03-15T07:34:01;101400.50;;;3.01
27715;BMP280;16051;53.024;8.630;2023-03-15T07:38:04;101412.84;;;3.16
27715;BMP280;16051;53.024;8.630;2023-03-15T07:42:07;101405.28;;;3.34
27715;BMP280;16051;53.024;8.630;2023-03-15T07:46:09;101413.03;;;3.39
27715;BMP280;16051;53.024;8.630;2023-03-15T07:50:13;101421.88;;;3.54
27715;BMP280;16051;53.024;8.630;2023-03-15T07:54:18;101426.69;;;3.76
27715;BMP280;16051;53.024;8.630;2023-03-15T07:58:20;101423.03;;;3.90
27715;BMP280;16051;53.024;8.630;2023-03-15T08:02:22;101429.94;;;3.98
27715;BMP280;16051;53.024;8.630;2023-03-15T08:06:25;101440.34;;;4.10
27715;BMP280;16051;53.024;8.630;2023-03-15T08:10:28;101436.31;;;4.22
27715;BMP280;16051;53.024;8.630;2023-03-15T08:14:39;101437.00;;;4.29
27715;BMP280;16051;53.024;8.630;2023-03-15T08:18:44;101446.13;;;4.46
27715;BMP280;16051;53.024;8.630;2023-03-15T08:22:48;101442.47;;;4.56
27715;BMP280;16051;53.024;8.630;2023-03-15T08:26:52;101451.72;;;4.66
27715;BMP280;16051;53.024;8.630;2023-03-15T08:30:54;101442.97;;;4.74
27715;BMP280;16051;53.024;8.630;2023-03-15T08:35:00;101464.16;;;4.70
27715;BMP280;16051;53.024;8.630;2023-03-15T08:39:02;101463.09;;;4.91
27715;BMP280;16051;53.024;8.630;2023-03-15T08:43:06;101484.09;;;4.97
27715;BMP280;16051;53.024;8.630;2023-03-15T08:47:11;101482.03;;;5.05
27715;BMP280;16051;53.024;8.630;2023-03-15T08:51:13;101491.47;;;5.01
27715;BMP280;16051;53.024;8.630;2023-03-15T08:55:15;101501.19;;;5.05
27715;BMP280;16051;53.024;8.630;2023-03-15T08:59:18;101499.13;;;5.13
27715;BMP280;16051;53.024;8.630;2023-03-15T09:03:50;101500.88;;;5.26
27715;BMP280;16051;53.024;8.630;2023-03-15T09:07:53;101506.69;;;5.28
27715;BMP280;16051;53.024;8.630;2023-03-15T09:11:55;101504.63;;;5.36
27715;BMP280;16051;53.024;8.630;2023-03-15T09:15:58;101517.78;;;5.44
27715;BMP280;16051;53.024;8.630;2023-03-15T09:20:00;101526.13;;;5.61
27715;BMP280;16051;53.024;8.630;2023-03-15T09:24:07;101526.44;;;5.66
27715;BMP280;16051;53.024;8.630;2023-03-15T09:28:12;101518.00;;;5.77
27715;BMP280;16051;53.024;8.630;2023-03-15T09:32:15;101529.13;;;5.93
27715;BMP280;16051;53.024;8.630;2023-03-15T09:36:18;101530.63;;;6.17
27715;BMP280;16051;53.024;8.630;2023-03-15T09:40:26;101529.84;;;6.36
27715;BMP280;16051;53.024;8.630;2023-03-15T09:44:43;101545.38;;;6.63
27715;BMP280;16051;53.024;8.630;2023-03-15T09:48:55;101548.88;;;6.83
27715;BMP280;16051;53.024;8.630;2023-03-15T09:53:25;101556.91;;;7.10
27715;BMP280;16051;53.024;8.630;2023-03-15T09:57:38;101555.38;;;7.57
27715;BMP280;16051;53.024;8.630;2023-03-15T10:01:46;101556.19;;;8.03
27715;BMP280;16051;53.024;8.630;2023-03-15T10:05:56;101564.13;;;8.29
27715;BMP280;16051;53.024;8.630;2023-03-15T10:10:00;101569.81;;;8.51
27715;BMP280;16051;53.024;8.630;2023-03-15T10:14:20;101613.53;;;8.04
27715;BMP280;16051;53.024;8.630;2023-03-15T10:18:53;101636.56;;;6.31
27715;BMP280;16051;53.024;8.630;2023-03-15T10:23:14;101660.16;;;4.61
27715;BMP280;16051;53.024;8.630;2023-03-15T10:27:24;101674.69;;;3.65
27715;BMP280;16051;53.024;8.630;2023-03-15T10:31:35;101696.41;;;3.14
27715;BMP280;16051;53.024;8.630;2023-03-15T10:35:47;101688.38;;;2.68
27715;BMP280;16051;53.024;8.630;2023-03-15T10:39:55;101697.81;;;2.42
27715;BMP280;16051;53.024;8.630;2023-03-15T10:44:03;101700.94;;;2.19
27715;BMP280;16051;53.024;8.630;2023-03-15T10:48:07;101700.94;;;2.02
27715;BMP280;16051;53.024;8.630;2023-03-15T10:52:43;101707.94;;;2.06
27715;BMP280;16051;53.024;8.630;2023-03-15T10:56:55;101702.09;;;2.18
27715;BMP280;16051;53.024;8.630;2023-03-15T11:01:02;101689.22;;;2.36
27715;BMP280;16051;53.024;8.630;2023-03-15T11:05:16;101693.47;;;2.55
27715;BMP280;16051;53.024;8.630;2023-03-15T11:09:22;101703.97;;;2.71
27715;BMP280;16051;53.024;8.630;2023-03-15T11:13:28;101697.31;;;2.75
27715;BMP280;16051;53.024;8.630;2023-03-15T11:17:41;101704.34;;;2.73
27715;BMP280;16051;53.024;8.630;2023-03-15T11:21:47;101731.59;;;2.90
27715;BMP280;16051;53.024;8.630;2023-03-15T11:25:51;101749.88;;;3.08
27715;BMP280;16051;53.024;8.630;2023-03-15T11:29:58;101758.44;;;3.13
27715;BMP280;16051;53.024;8.630;2023-03-15T11:34:08;101763.44;;;3.32
27715;BMP280;16051;53.024;8.630;2023-03-15T11:38:18;101770.00;;;3.49
27715;BMP280;16051;53.024;8.630;2023-03-15T11:42:34;101776.78;;;3.96
27715;BMP280;16051;53.024;8.630;2023-03-15T11:47:16;101776.28;;;5.34
27715;BMP280;16051;53.024;8.630;2023-03-15T11:51:21;101778.69;;;4.95
27715;BMP280;16051;53.024;8.630;2023-03-15T11:55:26;101778.03;;;4.80
27715;BMP280;16051;53.024;8.630;2023-03-15T11:59:31;101762.25;;;4.54
27715;BMP280;16051;53.024;8.630;2023-03-15T12:03:40;101756.81;;;4.51
27715;BMP280;16051;53.024;8.630;2023-03-15T12:08:20;101770.69;;;4.70
27715;BMP280;16051;53.024;8.630;2023-03-15T12:12:36;101771.84;;;5.10
27715;BMP280;16051;53.024;8.630;2023-03-15T12:16:44;101776.06;;;5.52
27715;BMP280;16051;53.024;8.630;2023-03-15T12:21:15;101780.28;;;6.40
27715;BMP280;16051;53.024;8.630;2023-03-15T12:25:24;101774.03;;;6.40
27715;BMP280;16051;53.024;8.630;2023-03-15T12:29:34;101776.22;;;6.25
27715;BMP280;16051;53.024;8.630;2023-03-15T12:33:46;101779.13;;;6.15
27715;BMP280;16051;53.024;8.630;2023-03-15T12:37:51;101786.53;;;5.91
27715;BMP280;16051;53.024;8.630;2023-03-15T12:41:54;101765.06;;;5.82
27715;BMP280;16051;53.024;8.630;2023-03-15T12:45:56;101757.09;;;5.95
27715;BMP280;16051;53.024;8.630;2023-03-15T12:50:38;101750.88;;;6.18
27715;BMP280;16051;53.024;8.630;2023-03-15T12:55:00;101749.47;;;6.06
27715;BMP280;16051;53.024;8.630;2023-03-15T12:59:33;101745.69;;;6.47
27715;BMP280;16051;53.024;8.630;2023-03-15T13:03:42;101744.44;;;7.14
27715;BMP280;16051;53.024;8.630;2023-03-15T13:08:07;101738.00;;;7.76
27715;BMP280;16051;53.024;8.630;2023-03-15T13:12:18;101742.09;;;8.20
27715;BMP280;16051;53.024;8.630;2023-03-15T13:16:44;101736.13;;;8.54
27715;BMP280;16051;53.024;8.630;2023-03-15T13:21:07;101729.41;;;9.00
27715;BMP280;16051;53.024;8.630;2023-03-15T13:25:18;101729.84;;;9.39
27715;BMP280;16051;53.024;8.630;2023-03-15T13:29:28;101730.72;;;9.36
27715;BMP280;16051;53.024;8.630;2023-03-15T13:33:32;101738.56;;;9.88
27715;BMP280;16051;53.024;8.630;2023-03-15T13:37:42;101737.91;;;10.10
27715;BMP280;16051;53.024;8.630;2023-03-15T13:41:45;101737.47;;;10.11
27715;BMP280;16051;53.024;8.630;2023-03-15T13:45:49;101732.91;;;10.43
27715;BMP280;16051;53.024;8.630;2023-03-15T13:49:51;101743.28;;;10.51
27715;BMP280;16051;53.024;8.630;2023-03-15T13:54:00;101730.53;;;10.66
27715;BMP280;16051;53.024;8.630;2023-03-15T13:58:06;101728.44;;;10.92
27715;BMP280;16051;53.024;8.630;2023-03-15T14:02:17;101724.63;;;10.77
27715;BMP280;16051;53.024;8.630;2023-03-15T14:06:24;101734.16;;;10.98
27715;BMP280;16051;53.024;8.630;2023-03-15T14:10:31;101736.00;;;11.22
27715;BMP280;16051;53.024;8.630;2023-03-15T14:14:51;101728.69;;;11.28
27715;BMP280;16051;53.024;8.630;2023-03-15T14:18:55;101742.41;;;11.41
27715;BMP280;16051;53.024;8.630;2023-03-15T14:23:02;101727.75;;;11.53
27715;BMP280;16051;53.024;8.630;2023-03-15T14:27:14;101739.22;;;11.43
27715;BMP280;16051;53.024;8.630;2023-03-15T14:31:24;101748.09;;;11.38
27715;BMP280;16051;53.024;8.630;2023-03-15T14:35:57;101742.56;;;10.94
27715;BMP280;16051;53.024;8.630;2023-03-15T14:40:13;101737.59;;;10.89
27715;BMP280;16051;53.024;8.630;2023-03-15T14:44:16;101736.97;;;10.85
27715;BMP280;16051;53.024;8.630;2023-03-15T14:48:25;101745.00;;;10.70
27715;BMP280;16051;53.024;8.630;2023-03-15T14:52:46;101741.81;;;10.59
27715;BMP280;16051;53.024;8.630;2023-03-15T14:56:48;101737.06;;;10.60
27715;BMP280;16051;53.024;8.630;2023-03-15T15:00:53;101741.78;;;10.38
27715;BMP280;16051;53.024;8.630;2023-03-15T15:05:00;101747.19;;;10.28
27715;BMP280;16051;53.024;8.630;2023-03-15T15:09:04;101745.22;;;10.16
27715;BMP280;16051;53.024;8.630;2023-03-15T15:13:14;101746.63;;;10.33
27715;BMP280;16051;53.024;8.630;2023-03-15T15:17:17;101757.34;;;10.31
27715;BMP280;16051;53.024;8.630;2023-03-15T15:21:26;101752.63;;;10.19
27715;BMP280;16051;53.024;8.630;2023-03-15T15:25:30;101742.25;;;10.23
27715;BMP280;16051;53.024;8.630;2023-03-15T15:29:33;101750.91;;;10.47
27715;BMP280;16051;53.024;8.630;2023-03-15T15:33:35;101753.78;;;10.44
27715;BMP280;16051;53.024;8.630;2023-03-15T15:37:37;101754.09;;;10.46
27715;BMP280;16051;53.024;8.630;2023-03-15T15:41:41;101747.97;;;10.29
27715;BMP280;16051;53.024;8.630;2023-03-15T15:45:43;101747.94;;;10.42
27715;BMP280;16051;53.024;8.630;2023-03-15T15:49:45;101755.59;;;10.25
27715;BMP280;16051;53.024;8.630;2023-03-15T15:53:48;101752.16;;;10.21
27715;BMP280;16051;53.024;8.630;2023-03-15T15:57:53;101749.09;;;10.19
27715;BMP280;16051;53.024;8.630;2023-03-15T16:01:56;101745.13;;;10.20
27715;BMP280;16051;53.024;8.630;2023-03-15T16:06:19;101755.38;;;10.19
27715;BMP280;16051;53.024;8.630;2023-03-15T16:10:25;101747.00;;;10.23
27715;BMP280;16051;53.024;8.630;2023-03-15T16:14:31;101756.03;;;9.98
27715;BMP280;16051;53.024;8.630;2023-03-15T16:18:33;101752.94;;;9.71
27715;BMP280;16051;53.024;8.630;2023-03-15T16:22:37;101761.75;;;9.53
27715;BMP280;16051;53.024;8.630;2023-03-15T16:26:42;101774.28;;;9.42
27715;BMP280;16051;53.024;8.630;2023-03-15T16:30:47;101769.19;;;9.27
27715;BMP280;16051;53.024;8.630;2023-03-15T16:34:52;101770.00;;;9.12
27715;BMP280;16051;53.024;8.630;2023-03-15T16:38:55;101763.16;;;9.04
27715;BMP280;16051;53.024;8.630;2023-03-15T16:43:10;101772.31;;;9.01
27715;BMP280;16051;53.024;8.630;2023-03-15T16:47:56;101777.94;;;8.81
27715;BMP280;16051;53.024;8.630;2023-03-15T16:52:01;101779.81;;;8.84
27715;BMP280;16051;53.024;8.630;2023-03-15T16:56:05;101781.38;;;8.69
27715;BMP280;16051;53.024;8.630;2023-03-15T17:00:40;101783.13;;;8.47
27715;BMP280;16051;53.024;8.630;2023-03-15T17:04:46;101790.44;;;8.37
27715;BMP280;16051;53.024;8.630;2023-03-15T17:08:49;101789.56;;;8.24
27715;BMP280;16051;53.024;8.630;2023-03-15T17:12:52;101789.22;;;8.06
27715;BMP280;16051;53.024;8.630;2023-03-15T17:16:55;101792.28;;;8.08
27715;BMP280;16051;53.024;8.630;2023-03-15T17:20:58;101802.84;;;7.93
27715;BMP280;16051;53.024;8.630;2023-03-15T17:25:00;101806.91;;;7.88
27715;BMP280;16051;53.024;8.630;2023-03-15T17:29:03;101808.31;;;7.77
27715;BMP280;16051;53.024;8.630;2023-03-15T17:33:12;101801.91;;;7.64
27715;BMP280;16051;53.024;8.630;2023-03-15T17:37:16;101802.56;;;7.52
27715;BMP280;16051;53.024;8.630;2023-03-15T17:41:22;101809.97;;;7.35
27715;BMP280;16051;53.024;8.630;2023-03-15T17:45:27;101816.66;;;7.14
27715;BMP280;16051;53.024;8.630;2023-03-15T17:49:30;101817.88;;;6.90
27715;BMP280;16051;53.024;8.630;2023-03-15T17:53:34;101825.34;;;6.66
27715;BMP280;16051;53.024;8.630;2023-03-15T17:57:36;101820.91;;;6.49
27715;BMP280;16051;53.024;8.630;2023-03-15T18:01:44;101825.63;;;6.25
27715;BMP280;16051;53.024;8.630;2023-03-15T18:05:54;101830.47;;;6.14
27715;BMP280;16051;53.024;8.630;2023-03-15T18:09:57;101825.88;;;6.08
27715;BMP280;16051;53.024;8.630;2023-03-15T18:14:00;101834.31;;;5.90
27715;BMP280;16051;53.024;8.630;2023-03-15T18:18:02;101836.72;;;5.84
27715;BMP280;16051;53.024;8.630;2023-03-15T18:22:04;101824.69;;;5.78
27715;BMP280;16051;53.024;8.630;2023-03-15T18:26:08;101833.75;;;5.72
27715;BMP280;16051;53.024;8.630;2023-03-15T18:30:12;101835.84;;;5.61
27715;BMP280;16051;53.024;8.630;2023-03-15T18:34:16;101837.97;;;5.50
27715;BMP280;16051;53.024;8.630;2023-03-15T18:38:40;101845.53;;;5.38
27715;BMP280;16051;53.024;8.630;2023-03-15T18:42:44;101847.94;;;5.29
27715;BMP280;16051;53.024;8.630;2023-03-15T18:46:46;101861.72;;;5.22
27715;BMP280;16051;53.024;8.630;2023-03-15T18:50:56;101856.72;;;5.14
27715;BMP280;16051;53.024;8.630;2023-03-15T18:54:58;101856.44;;;5.05
27715;BMP280;16051;53.024;8.630;2023-03-15T18:59:02;101859.22;;;4.97
27715;BMP280;16051;53.024;8.630;2023-03-15T19:03:04;101868.25;;;4.94
27715;BMP280;16051;53.024;8.630;2023-03-15T19:07:07;101876.25;;;4.75
27715;BMP280;16051;53.024;8.630;2023-03-15T19:11:10;101876.28;;;4.68
27715;BMP280;16051;53.024;8.630;2023-03-15T19:15:16;101876.75;;;4.63
27715;BMP280;16051;53.024;8.630;2023-03-15T19:19:19;101890.44;;;4.63
27715;BMP280;16051;53.024;8.630;2023-03-15T19:23:21;101888.50;;;4.56
27715;BMP280;16051;53.024;8.630;2023-03-15T19:27:35;101889.31;;;4.53
27715;BMP280;16051;53.024;8.630;2023-03-15T19:31:38;101891.75;;;4.40
27715;BMP280;16051;53.024;8.630;2023-03-15T19:35:52;101896.84;;;4.35
27715;BMP280;16051;53.024;8.630;2023-03-15T19:39:55;101893.75;;;4.33
27715;BMP280;16051;53.024;8.630;2023-03-15T19:44:11;101896.88;;;4.31
27715;BMP280;16051;53.024;8.630;2023-03-15T19:48:18;101900.16;;;4.09
27715;BMP280;16051;53.024;8.630;2023-03-15T19:52:29;101896.25;;;3.99
27715;BMP280;16051;53.024;8.630;2023-03-15T19:56:47;101894.41;;;3.75
27715;BMP280;16051;53.024;8.630;2023-03-15T20:01:17;101899.13;;;3.67
27715;BMP280;16051;53.024;8.630;2023-03-15T20:05:22;101900.69;;;3.72
27715;BMP280;16051;53.024;8.630;2023-03-15T20:09:27;101915.16;;;3.58
27715;BMP280;16051;53.024;8.630;2023-03-15T20:13:32;101908.56;;;3.45
27715;BMP280;16051;53.024;8.630;2023-03-15T20:17:50;101915.59;;;3.46
27715;BMP280;16051;53.024;8.630;2023-03-15T20:21:54;101908.19;;;3.32
27715;BMP280;16051;53.024;8.630;2023-03-15T20:26:08;101909.75;;;3.30
27715;BMP280;16051;53.024;8.630;2023-03-15T20:30:20;101914.84;;;3.21
27715;BMP280;16051;53.024;8.630;2023-03-15T20:34:24;101923.84;;;3.11
27715;BMP280;16051;53.024;8.630;2023-03-15T20:38:35;101913.66;;;3.08
27715;BMP280;16051;53.024;8.630;2023-03-15T20:42:44;101928.88;;;3.02
27715;BMP280;16051;53.024;8.630;2023-03-15T20:46:47;101916.03;;;3.02
27715;BMP280;16051;53.024;8.630;2023-03-15T20:51:00;101921.09;;;3.00
27715;BMP280;16051;53.024;8.630;2023-03-15T20:55:13;101920.69;;;2.87
27715;BMP280;16051;53.024;8.630;2023-03-15T20:59:24;101923.06;;;2.75
27715;BMP280;16051;53.024;8.630;2023-03-15T21:03:26;101927.31;;;2.69
27715;BMP280;16051;53.024;8.630;2023-03-15T21:07:35;101925.00;;;2.67
27715;BMP280;16051;53.024;8.630;2023-03-15T21:11:39;101928.88;;;2.59
27715;BMP280;16051;53.024;8.630;2023-03-15T21:15:43;101926.13;;;2.45
27715;BMP280;16051;53.024;8.630;2023-03-15T21:19:46;101930.00;;;2.40
27715;BMP280;16051;53.024;8.630;2023-03-15T21:23:48;101921.81;;;2.37
27715;BMP280;16051;53.024;8.630;2023-03-15T21:27:52;101921.00;;;2.29
27715;BMP280;16051;53.024;8.630;2023-03-15T21:32:00;101923.72;;;2.22
27715;BMP280;16051;53.024;8.630;2023-03-15T21:36:04;101928.78;;;2.24
27715;BMP280;16051;53.024;8.630;2023-03-15T21:40:08;101937.72;;;2.24
27715;BMP280;16051;53.024;8.630;2023-03-15T21:44:12;101935.38;;;2.19
27715;BMP280;16051;53.024;8.630;2023-03-15T21:48:15;101934.59;;;2.19
27715;BMP280;16051;53.024;8.630;2023-03-15T21:52:18;101937.28;;;2.08
27715;BMP280;16051;53.024;8.630;2023-03-15T21:56:21;101937.66;;;2.03
27715;BMP280;16051;53.024;8.630;2023-03-15T22:00:27;101949.31;;;2.00
27715;BMP280;16051;53.024;8.630;2023-03-15T22:04:29;101938.03;;;1.98
27715;BMP280;16051;53.024;8.630;2023-03-15T22:08:52;101941.88;;;1.90
27715;BMP280;16051;53.024;8.630;2023-03-15T22:12:54;101953.13;;;1.85
27715;BMP280;16051;53.024;8.630;2023-03-15T22:16:57;101946.88;;;1.77
27715;BMP280;16051;53.024;8.630;2023-03-15T22:21:00;101948.06;;;1.80
27715;BMP280;16051;53.024;8.630;2023-03-15T22:25:02;101941.81;;;1.72
27715;BMP280;16051;53.024;8.630;2023-03-15T22:29:06;101941.00;;;1.68
27715;BMP280;16051;53.024;8.630;2023-03-15T22:33:10;101942.13;;;1.64
27715;BMP280;16051;53.024;8.630;2023-03-15T22:37:12;101938.59;;;1.56
27715;BMP280;16051;53.024;8.630;2023-03-15T22:41:16;101935.84;;;1.56
27715;BMP280;16051;53.024;8.630;2023-03-15T22:45:18;101927.28;;;1.51
27715;BMP280;16051;53.024;8.630;2023-03-15T22:49:22;101926.47;;;1.46
27715;BMP280;16051;53.024;8.630;2023-03-15T22:53:35;101935.78;;;1.42
27715;BMP280;16051;53.024;8.630;2023-03-15T22:57:38;101934.66;;;1.46
27715;BMP280;16051;53.024;8.630;2023-03-15T23:01:40;101947.84;;;1.41
27715;BMP280;16051;53.024;8.630;2023-03-15T23:05:43;101944.28;;;1.30
27715;BMP280;16051;53.024;8.630;2023-03-15T23:09:45;101950.47;;;1.30
27715;BMP280;16051;53.024;8.630;2023-03-15T23:13:48;101945.38;;;1.22
27715;BMP280;16051;53.024;8.630;2023-03-15T23:17:50;101941.47;;;1.19
27715;BMP280;16051;53.024;8.630;2023-03-15T23:21:55;101941.47;;;1.19
27715;BMP280;16051;53.024;8.630;2023-03-15T23:25:57;101943.00;;;1.17
27715;BMP280;16051;53.024;8.630;2023-03-15T23:29:59;101946.44;;;1.10
27715;BMP280;16051;53.024;8.630;2023-03-15T23:34:01;101946.06;;;1.12
27715;BMP280;16051;53.024;8.630;2023-03-15T23:38:05;101950.28;;;1.06
27715;BMP280;16051;53.024;8.630;2023-03-15T23:42:07;101947.56;;;1.06